Time;durP1;ratioP1;P1;durP2;ratioP2;P2;SDS_P1;SDS_P2;PMS_P1;PMS_P2;Temp;Humidity;BMP_temperature;BMP_pressure;BME280_temperature;BME280_humidity;BME280_pressure;Samples;Min_cycle;Max_cycle;Signal;HPM_P1;HPM_P2
2022/06/21 00:00:41;;;;;;;21.80;13.57;;;;;;;;;;5027128;28;20025;-68
2022/06/21 00:03:09;;;;;;;29.23;14.35;;;;;;;;;;5026688;28;20033;-68
2022/06/21 00:05:37;;;;;;;26.52;13.40;;;;;;;;;;5029109;28;20098;-67
2022/06/21 00:08:04;;;;;;;33.38;15.13;;;;;;;;;;5020895;28;20042;-68
2022/06/21 00:10:34;;;;;;;25.67;15.05;;;;;;;;;;5026307;28;20029;-68
2022/06/21 00:13:00;;;;;;;37.00;16.23;;;;;;;;;;5024399;28;20053;-68
2022/06/21 00:15:27;;;;;;;26.38;16.15;;;;;;;;;;5029943;28;20040;-68
2022/06/21 00:17:53;;;;;;;29.63;15.85;;;;;;;;;;5027533;28;21600;-68
2022/06/21 00:20:20;;;;;;;40.88;19.17;;;;;;;;;;5027043;28;20034;-68
2022/06/21 00:22:47;;;;;;;40.28;20.08;;;;;;;;;;5027443;28;20490;-68
2022/06/21 00:25:21;;;;;;;33.25;17.58;;;;;;;;;;5028525;28;20044;-68
2022/06/21 00:27:47;;;;;;;32.17;18.08;;;;;;;;;;5029125;28;20029;-68
2022/06/21 00:30:14;;;;;;;31.92;18.00;;;;;;;;;;5030528;28;20039;-68
2022/06/21 00:32:41;;;;;;;39.25;19.60;;;;;;;;;;5025655;28;20061;-68
2022/06/21 00:35:11;;;;;;;35.25;18.92;;;;;;;;;;5029075;28;20041;-68
2022/06/21 00:37:37;;;;;;;41.05;20.08;;;;;;;;;;5033872;28;20025;-68
2022/06/21 00:40:07;;;;;;;44.53;20.15;;;;;;;;;;5025301;28;20036;-67
2022/06/21 00:42:36;;;;;;;35.30;19.08;;;;;;;;;;5032222;28;20132;-68
2022/06/21 00:45:02;;;;;;;29.35;17.92;;;;;;;;;;5028899;28;20029;-68
2022/06/21 00:47:39;;;;;;;41.10;19.60;;;;;;;;;;5034264;28;20052;-68
2022/06/21 00:50:11;;;;;;;40.85;18.92;;;;;;;;;;5029707;28;20756;-68
2022/06/21 00:52:42;;;;;;;34.72;18.80;;;;;;;;;;5028739;28;20044;-68
2022/06/21 00:55:08;;;;;;;;;;;;;;;;;;5034670;28;20021;-67
2022/06/21 00:57:40;;;;;;;29.40;16.85;;;;;;;;;;5031253;28;19917;-67
2022/06/21 01:00:24;;;;;;;24.38;14.98;;;;;;;;;;5028473;28;20478;-67
2022/06/21 01:02:52;;;;;;;20.30;12.73;;;;;;;;;;5027305;28;20049;-68
2022/06/21 01:05:18;;;;;;;21.85;13.70;;;;;;;;;;5035097;28;20029;-68
2022/06/21 01:07:46;;;;;;;23.70;15.13;;;;;;;;;;5035976;28;20459;-68
2022/06/21 01:10:15;;;;;;;22.23;14.27;;;;;;;;;;5028146;28;20566;-68
2022/06/21 01:12:48;;;;;;;20.48;12.82;;;;;;;;;;5029190;28;20041;-68
2022/06/21 01:15:17;;;;;;;27.52;16.63;;;;;;;;;;5034523;28;20025;-68
2022/06/21 01:17:44;;;;;;;19.15;12.02;;;;;;;;;;5031680;28;20045;-68
2022/06/21 01:20:12;;;;;;;17.17;11.23;;;;;;;;;;5030272;28;20175;-66
2022/06/21 01:22:57;;;;;;;26.27;16.75;;;;;;;;;;5024846;28;20624;-67
2022/06/21 01:25:46;;;;;;;31.27;16.77;;;;;;;;;;5034003;28;20037;-67
2022/06/21 01:28:12;;;;;;;36.78;18.60;;;;;;;;;;5029112;28;20112;-66
2022/06/21 01:30:39;;;;;;;27.10;16.63;;;;;;;;;;5031234;28;20026;-67
2022/06/21 01:33:05;;;;;;;22.60;15.15;;;;;;;;;;5031973;28;20277;-67
2022/06/21 01:35:37;;;;;;;22.20;14.55;;;;;;;;;;5029162;28;20064;-68
2022/06/21 01:38:04;;;;;;;23.52;14.45;;;;;;;;;;5028524;28;20025;-68
2022/06/21 01:40:32;;;;;;;19.65;14.15;;;;;;;;;;5033369;28;20029;-68
2022/06/21 01:43:00;;;;;;;22.58;13.68;;;;;;;;;;5030430;28;20033;-68
2022/06/21 01:45:29;;;;;;;23.48;14.77;;;;;;;;;;5032115;28;20026;-68
2022/06/21 01:48:01;;;;;;;24.38;14.38;;;;;;;;;;5032190;28;20082;-67
2022/06/21 01:50:28;;;;;;;23.63;15.43;;;;;;;;;;5033081;28;20030;-68
2022/06/21 01:52:55;;;;;;;23.48;15.15;;;;;;;;;;5033588;28;20043;-68
2022/06/21 01:55:29;;;;;;;31.88;17.75;;;;;;;;;;5033088;28;20032;-66
2022/06/21 01:57:57;;;;;;;29.45;17.58;;;;;;;;;;5028643;28;20071;-67
2022/06/21 02:00:23;;;;;;;22.45;14.85;;;;;;;;;;5036001;28;20136;-69
2022/06/21 02:02:51;;;;;;;20.85;14.00;;;;;;;;;;5033441;28;20537;-67
2022/06/21 02:05:19;;;;;;;17.70;12.63;;;;;;;;;;5031643;28;20051;-67
2022/06/21 02:07:46;;;;;;;27.55;15.90;;;;;;;;;;5031298;28;20076;-67
2022/06/21 02:10:21;;;;;;;21.00;11.63;;;;;;;;;;5033294;28;21537;-67
2022/06/21 02:12:49;;;;;;;12.93;9.52;;;;;;;;;;5030969;28;20033;-68
2022/06/21 02:15:23;;;;;;;24.02;11.40;;;;;;;;;;5030009;28;20065;-67
2022/06/21 02:17:50;;;;;;;37.42;11.05;;;;;;;;;;5037275;28;20071;-67
2022/06/21 02:20:43;;;;;;;124.90;17.98;;;;;;;;;;5036848;28;20048;-67
2022/06/21 02:23:11;;;;;;;24.20;14.57;;;;;;;;;;5025756;28;20494;-67
2022/06/21 02:25:39;;;;;;;26.52;14.05;;;;;;;;;;5036182;28;20091;-67
2022/06/21 02:28:06;;;;;;;26.75;14.98;;;;;;;;;;5026110;28;20038;-67
2022/06/21 02:30:32;;;;;;;42.53;21.25;;;;;;;;;;5036401;28;20044;-67
2022/06/21 02:33:01;;;;;;;39.88;22.92;;;;;;;;;;5030776;28;20030;-67
2022/06/21 02:35:27;;;;;;;48.33;24.85;;;;;;;;;;5030005;28;20033;-67
2022/06/21 02:37:54;;;;;;;48.83;24.40;;;;;;;;;;5029105;28;20087;-66
2022/06/21 02:40:28;;;;;;;54.53;26.45;;;;;;;;;;5024947;28;20124;-66
2022/06/21 02:42:57;;;;;;;46.25;24.27;;;;;;;;;;5032814;28;20069;-66
2022/06/21 02:45:27;;;;;;;51.03;26.10;;;;;;;;;;5031423;28;20123;-66
2022/06/21 02:47:55;;;;;;;45.90;25.00;;;;;;;;;;5029106;28;20064;-67
2022/06/21 02:50:32;;;;;;;54.63;28.25;;;;;;;;;;5029457;28;20064;-67
2022/06/21 02:52:59;;;;;;;57.72;27.73;;;;;;;;;;5027967;28;20410;-68
2022/06/21 02:55:35;;;;;;;52.20;27.98;;;;;;;;;;5032303;28;20029;-67
2022/06/21 02:58:13;;;;;;;53.95;28.63;;;;;;;;;;5025964;28;20041;-67
2022/06/21 03:00:42;;;;;;;48.13;23.70;;;;;;;;;;5028238;28;20032;-67
2022/06/21 03:03:14;;;;;;;49.22;25.38;;;;;;;;;;5025086;28;20495;-68
2022/06/21 03:05:40;;;;;;;51.88;25.92;;;;;;;;;;5026277;28;20500;-67
2022/06/21 03:08:07;;;;;;;44.88;23.48;;;;;;;;;;5021451;28;20037;-67
2022/06/21 03:10:37;;;;;;;31.73;20.90;;;;;;;;;;5025454;28;20033;-67
2022/06/21 03:13:17;;;;;;;44.72;22.35;;;;;;;;;;5025670;28;20537;-67
2022/06/21 03:15:45;;;;;;;34.97;19.48;;;;;;;;;;5029445;28;20040;-68
2022/06/21 03:18:14;;;;;;;40.38;23.77;;;;;;;;;;5025296;28;20479;-67
2022/06/21 03:20:41;;;;;;;34.28;21.48;;;;;;;;;;5032059;28;20025;-67
2022/06/21 03:23:07;;;;;;;37.85;22.73;;;;;;;;;;5029950;28;20120;-68
2022/06/21 03:25:33;;;;;;;33.70;20.80;;;;;;;;;;5031999;28;20034;-67
2022/06/21 03:28:01;;;;;;;42.33;22.73;;;;;;;;;;5031114;28;20079;-67
2022/06/21 03:30:29;;;;;;;39.15;22.73;;;;;;;;;;5037401;28;20065;-67
2022/06/21 03:32:56;;;;;;;47.65;24.00;;;;;;;;;;5030012;28;20506;-66
2022/06/21 03:35:23;;;;;;;42.53;25.48;;;;;;;;;;5035136;28;20028;-66
2022/06/21 03:37:49;;;;;;;56.85;25.70;;;;;;;;;;5025596;28;20321;-66
2022/06/21 03:43:09;;;;;;;60.63;27.55;;;;;;;;;;5031341;28;20091;-67
2022/06/21 03:45:37;;;;;;;54.33;27.70;;;;;;;;;;5033159;28;20030;-67
2022/06/21 03:48:06;;;;;;;51.15;26.52;;;;;;;;;;5028905;28;20037;-67
2022/06/21 03:50:36;;;;;;;49.10;25.33;;;;;;;;;;5031079;28;20051;-66
2022/06/21 03:53:12;;;;;;;49.15;25.70;;;;;;;;;;5031420;28;20121;-68
2022/06/21 03:55:44;;;;;;;52.17;24.63;;;;;;;;;;5031100;28;20034;-67
2022/06/21 03:58:16;;;;;;;50.38;25.08;;;;;;;;;;5026315;28;20045;-67
2022/06/21 04:01:05;;;;;;;54.83;24.30;;;;;;;;;;5026610;28;20026;-67
2022/06/21 04:03:31;;;;;;;51.55;25.33;;;;;;;;;;5029150;28;20017;-67
2022/06/21 04:06:07;;;;;;;44.22;24.52;;;;;;;;;;5024864;28;20030;-67
2022/06/21 04:08:42;;;;;;;48.58;25.92;;;;;;;;;;5019348;28;20498;-67
2022/06/21 04:11:20;;;;;;;43.05;23.80;;;;;;;;;;5032017;28;20551;-68
2022/06/21 04:13:52;;;;;;;40.75;24.00;;;;;;;;;;5029865;28;20048;-68
2022/06/21 04:16:35;;;;;;;48.20;26.65;;;;;;;;;;5028623;28;20025;-67
2022/06/21 04:19:04;;;;;;;51.15;25.40;;;;;;;;;;5030531;28;20043;-67
2022/06/21 04:21:45;;;;;;;51.95;27.10;;;;;;;;;;5033148;28;20143;-66
2022/06/21 04:24:24;;;;;;;54.10;22.65;;;;;;;;;;5029134;28;20029;-67
2022/06/21 04:26:59;;;;;;;53.38;25.77;;;;;;;;;;5024241;28;20048;-69
2022/06/21 04:29:33;;;;;;;53.97;26.88;;;;;;;;;;5027489;28;20041;-67
2022/06/21 04:32:02;;;;;;;42.67;23.63;;;;;;;;;;5028820;28;20078;-67
2022/06/21 04:34:28;;;;;;;41.65;20.95;;;;;;;;;;5024360;28;20041;-67
2022/06/21 04:36:58;;;;;;;36.17;18.60;;;;;;;;;;5032478;28;20649;-67
2022/06/21 04:39:26;;;;;;;24.17;14.52;;;;;;;;;;5022756;28;20036;-68
2022/06/21 04:42:04;;;;;;;17.02;11.68;;;;;;;;;;5032598;28;20047;-69
2022/06/21 04:44:34;;;;;;;19.08;9.82;;;;;;;;;;5033901;28;20475;-68
2022/06/21 04:47:05;;;;;;;20.00;10.52;;;;;;;;;;5039642;28;20040;-68
2022/06/21 04:49:31;;;;;;;;;;;;;;;;;;5026845;28;20517;-69
2022/06/21 04:52:06;;;;;;;16.35;6.88;;;;;;;;;;5034301;28;19917;-67
2022/06/21 04:54:34;;;;;;;14.82;7.15;;;;;;;;;;5030724;28;20057;-67
2022/06/21 04:57:00;;;;;;;13.35;6.95;;;;;;;;;;5038995;28;20029;-67
2022/06/21 04:59:31;;;;;;;31.13;9.70;;;;;;;;;;5033680;28;20509;-68
2022/06/21 05:01:58;;;;;;;19.00;7.80;;;;;;;;;;5030564;28;20033;-72
2022/06/21 05:04:24;;;;;;;12.02;6.30;;;;;;;;;;5036928;28;20017;-71
2022/06/21 05:06:50;;;;;;;32.28;10.43;;;;;;;;;;5033019;28;20040;-72
2022/06/21 05:09:18;;;;;;;33.53;8.30;;;;;;;;;;5028042;28;20068;-72
2022/06/21 05:11:44;;;;;;;14.25;6.60;;;;;;;;;;5034286;28;20100;-72
2022/06/21 05:14:21;;;;;;;17.25;7.03;;;;;;;;;;5029599;28;20491;-72
2022/06/21 05:16:50;;;;;;;15.40;6.70;;;;;;;;;;5041987;28;20021;-73
2022/06/21 05:19:23;;;;;;;17.33;6.60;;;;;;;;;;5025604;28;20060;-73
2022/06/21 05:21:57;;;;;;;11.73;5.63;;;;;;;;;;5024620;28;20344;-73
2022/06/21 05:24:23;;;;;;;14.88;6.18;;;;;;;;;;5024676;28;21465;-74
2022/06/21 05:27:06;;;;;;;12.07;5.63;;;;;;;;;;5035512;28;20049;-73
2022/06/21 05:29:39;;;;;;;9.60;5.50;;;;;;;;;;5021981;28;20041;-72
2022/06/21 05:32:06;;;;;;;12.63;5.18;;;;;;;;;;5036460;28;20035;-72
2022/06/21 05:34:42;;;;;;;12.20;4.85;;;;;;;;;;5032193;28;20029;-73
2022/06/21 05:37:23;;;;;;;18.20;4.60;;;;;;;;;;5033565;28;20105;-73
2022/06/21 05:39:50;;;;;;;14.20;4.53;;;;;;;;;;5025990;28;20364;-73
2022/06/21 05:42:19;;;;;;;21.63;4.60;;;;;;;;;;5034355;28;20025;-70
2022/06/21 05:44:48;;;;;;;14.65;4.07;;;;;;;;;;5032142;28;20052;-72
2022/06/21 05:47:21;;;;;;;11.02;3.97;;;;;;;;;;5034270;28;20032;-75
2022/06/21 05:49:48;;;;;;;20.60;4.72;;;;;;;;;;5029585;28;20091;-73
2022/06/21 05:52:17;;;;;;;12.55;3.75;;;;;;;;;;5037509;28;20041;-73
2022/06/21 05:54:46;;;;;;;11.73;3.30;;;;;;;;;;5033384;28;20037;-74
2022/06/21 05:57:33;;;;;;;13.95;3.53;;;;;;;;;;5030334;28;20046;-74
2022/06/21 06:00:00;;;;;;;10.18;2.53;;;;;;;;;;5010850;28;20194;-73
2022/06/21 06:02:40;;;;;;;14.13;3.00;;;;;;;;;;5003065;28;20038;-74
2022/06/21 06:05:07;;;;;;;13.07;3.25;;;;;;;;;;5002288;28;20099;-72
2022/06/21 06:07:54;;;;;;;12.30;3.22;;;;;;;;;;5003874;28;20265;-72
2022/06/21 06:10:21;;;;;;;8.15;3.25;;;;;;;;;;5003270;28;20052;-73
2022/06/21 06:12:49;;;;;;;17.85;3.40;;;;;;;;;;5007656;28;20116;-72
2022/06/21 06:15:28;;;;;;;13.15;3.33;;;;;;;;;;5001954;28;20053;-73
2022/06/21 06:18:00;;;;;;;12.57;2.67;;;;;;;;;;5009959;28;20055;-74
2022/06/21 06:20:29;;;;;;;9.50;2.75;;;;;;;;;;5007653;28;20042;-74
2022/06/21 06:23:01;;;;;;;14.35;3.65;;;;;;;;;;5006519;28;20561;-74
2022/06/21 06:25:32;;;;;;;8.57;2.63;;;;;;;;;;4998074;28;20691;-73
2022/06/21 06:27:58;;;;;;;;;;;;;;;;;;5006119;28;20111;-72
2022/06/21 06:30:38;;;;;;;15.65;3.13;;;;;;;;;;5018930;28;19913;-72
2022/06/21 06:33:16;;;;;;;17.50;2.92;;;;;;;;;;5023654;28;20080;-73
2022/06/21 06:35:44;;;;;;;11.38;2.60;;;;;;;;;;5026163;28;20028;-75
2022/06/21 06:38:14;;;;;;;15.18;2.90;;;;;;;;;;5023113;28;20612;-75
2022/06/21 06:40:42;;;;;;;7.60;2.42;;;;;;;;;;5030766;28;20025;-72
2022/06/21 06:43:14;;;;;;;7.35;2.28;;;;;;;;;;5026083;28;20029;-73
2022/06/21 06:45:41;;;;;;;12.98;2.45;;;;;;;;;;5030910;28;20937;-74
2022/06/21 06:48:12;;;;;;;6.15;2.08;;;;;;;;;;5021353;28;20024;-74
2022/06/21 06:50:41;;;;;;;9.88;2.10;;;;;;;;;;5033392;28;20064;-74
2022/06/21 06:53:14;;;;;;;6.53;1.80;;;;;;;;;;5027697;28;20043;-73
2022/06/21 06:55:47;;;;;;;7.70;1.95;;;;;;;;;;5031104;28;20037;-73
2022/06/21 06:58:25;;;;;;;7.00;2.42;;;;;;;;;;5029408;28;20041;-75
2022/06/21 07:00:55;;;;;;;8.10;2.00;;;;;;;;;;5020491;28;20511;-74
2022/06/21 07:03:24;;;;;;;5.72;1.95;;;;;;;;;;5021267;28;20045;-75
2022/06/21 07:05:50;;;;;;;13.77;2.65;;;;;;;;;;5027487;28;20040;-75
2022/06/21 07:08:16;;;;;;;11.68;2.50;;;;;;;;;;5026267;28;20033;-74
2022/06/21 07:10:42;;;;;;;8.70;1.77;;;;;;;;;;5029251;28;20491;-74
2022/06/21 07:13:09;;;;;;;6.07;1.77;;;;;;;;;;5032711;28;20029;-74
2022/06/21 07:15:39;;;;;;;6.28;1.80;;;;;;;;;;5022620;28;20125;-73
2022/06/21 07:18:07;;;;;;;8.13;2.25;;;;;;;;;;5026451;28;20151;-72
2022/06/21 07:20:36;;;;;;;6.18;1.85;;;;;;;;;;5023024;28;20044;-74
2022/06/21 07:23:03;;;;;;;5.23;2.17;;;;;;;;;;5027248;28;21428;-74
2022/06/21 07:25:35;;;;;;;6.43;2.03;;;;;;;;;;5029719;28;20536;-74
2022/06/21 07:28:07;;;;;;;8.18;2.33;;;;;;;;;;5024367;28;20033;-75
2022/06/21 07:30:39;;;;;;;4.93;1.95;;;;;;;;;;5044525;28;20036;-75
2022/06/21 07:33:07;;;;;;;8.95;3.08;;;;;;;;;;5034072;28;20021;-74
2022/06/21 07:35:39;;;;;;;14.07;2.85;;;;;;;;;;5035639;28;20034;-72
2022/06/21 07:38:09;;;;;;;8.18;2.70;;;;;;;;;;5029369;28;20034;-75
2022/06/21 07:40:41;;;;;;;7.50;2.03;;;;;;;;;;5028978;28;20033;-76
2022/06/21 07:43:19;;;;;;;10.77;2.38;;;;;;;;;;5041043;28;20094;-73
2022/06/21 07:45:52;;;;;;;9.27;2.25;;;;;;;;;;5026714;28;20037;-74
2022/06/21 07:48:21;;;;;;;3.72;1.58;;;;;;;;;;5024312;28;20072;-74
2022/06/21 07:51:07;;;;;;;7.80;2.40;;;;;;;;;;5039083;28;20029;-74
2022/06/21 07:53:39;;;;;;;6.95;2.10;;;;;;;;;;5016608;28;20038;-75
2022/06/21 07:56:17;;;;;;;7.93;2.53;;;;;;;;;;5027891;28;20399;-73
2022/06/21 07:59:04;;;;;;;9.85;2.35;;;;;;;;;;5027419;28;20114;-76
2022/06/21 08:07:20;;;;;;;6.63;2.35;;;;;;;;;;5019210;28;20159;-73
2022/06/21 08:09:55;;;;;;;13.10;2.40;;;;;;;;;;5036026;28;20044;-73
2022/06/21 08:12:21;;;;;;;12.95;2.47;;;;;;;;;;5029399;28;20503;-73
2022/06/21 08:14:47;;;;;;;8.95;2.30;;;;;;;;;;5039827;28;20026;-76
2022/06/21 08:17:17;;;;;;;9.70;2.38;;;;;;;;;;5009002;28;20029;-74
2022/06/21 08:19:51;;;;;;;5.93;2.47;;;;;;;;;;5028809;28;20040;-74
2022/06/21 08:22:19;;;;;;;8.93;2.80;;;;;;;;;;5033594;28;20056;-75
2022/06/21 08:24:55;;;;;;;9.02;2.33;;;;;;;;;;5025119;28;20037;-73
2022/06/21 08:27:39;;;;;;;9.23;2.35;;;;;;;;;;5018937;28;20116;-74
2022/06/21 08:30:09;;;;;;;8.88;2.30;;;;;;;;;;5022923;28;20044;-75
2022/06/21 08:32:41;;;;;;;4.97;2.00;;;;;;;;;;5029193;28;20064;-74
2022/06/21 08:35:12;;;;;;;6.75;2.53;;;;;;;;;;5021725;28;20022;-75
2022/06/21 08:38:01;;;;;;;7.30;2.00;;;;;;;;;;5020896;28;20036;-74
2022/06/21 08:40:46;;;;;;;8.57;2.17;;;;;;;;;;5014495;28;20034;-74
2022/06/21 08:43:21;;;;;;;5.57;1.98;;;;;;;;;;5024977;28;20494;-74
2022/06/21 08:46:05;;;;;;;10.60;2.50;;;;;;;;;;5029967;28;20029;-74
2022/06/21 08:48:50;;;;;;;9.13;2.05;;;;;;;;;;5047563;28;20075;-75
2022/06/21 08:51:19;;;;;;;11.43;2.47;;;;;;;;;;5040846;28;20132;-74
2022/06/21 08:53:48;;;;;;;8.30;1.83;;;;;;;;;;5026937;28;20021;-74
2022/06/21 08:56:14;;;;;;;5.70;1.85;;;;;;;;;;5029485;28;20037;-75
2022/06/21 08:58:41;;;;;;;4.85;1.80;;;;;;;;;;5028558;28;20597;-75
2022/06/21 09:01:17;;;;;;;8.35;2.30;;;;;;;;;;5026024;28;20025;-76
2022/06/21 09:03:46;;;;;;;7.10;2.78;;;;;;;;;;5034579;28;20029;-75
2022/06/21 09:06:15;;;;;;;6.13;1.60;;;;;;;;;;5032525;28;20050;-72
2022/06/21 09:08:44;;;;;;;7.65;1.98;;;;;;;;;;5023012;28;20514;-74
2022/06/21 09:11:24;;;;;;;6.57;1.45;;;;;;;;;;5039109;28;20064;-74
2022/06/21 09:14:09;;;;;;;7.40;1.77;;;;;;;;;;5025601;28;20025;-74
2022/06/21 09:16:39;;;;;;;4.75;2.00;;;;;;;;;;5009434;28;20109;-71
2022/06/21 09:19:17;;;;;;;7.35;1.80;;;;;;;;;;5016533;28;20030;-74
2022/06/21 09:21:55;;;;;;;12.80;2.30;;;;;;;;;;5023513;28;20029;-74
2022/06/21 09:24:30;;;;;;;6.53;2.00;;;;;;;;;;5022564;28;20033;-74
2022/06/21 09:27:05;;;;;;;6.10;1.95;;;;;;;;;;5045068;28;20060;-75
2022/06/21 09:29:34;;;;;;;5.15;1.70;;;;;;;;;;5023046;28;20029;-75
2022/06/21 09:32:20;;;;;;;6.05;1.95;;;;;;;;;;5030653;28;20034;-73
2022/06/21 09:34:53;;;;;;;6.88;1.90;;;;;;;;;;5029213;28;20477;-74
2022/06/21 09:37:25;;;;;;;5.20;1.85;;;;;;;;;;5034366;28;20543;-75
2022/06/21 09:39:51;;;;;;;6.20;1.85;;;;;;;;;;5033263;28;20040;-75
2022/06/21 09:42:23;;;;;;;6.75;1.80;;;;;;;;;;5034563;28;20036;-76
2022/06/21 09:45:05;;;;;;;5.63;1.70;;;;;;;;;;5049161;28;20482;-75
2022/06/21 09:48:10;;;;;;;4.43;1.80;;;;;;;;;;5031381;28;20034;-75
2022/06/21 09:50:43;;;;;;;5.85;1.90;;;;;;;;;;4970217;28;20065;-76
2022/06/21 09:53:22;;;;;;;12.80;2.58;;;;;;;;;;4976501;28;20208;-76
2022/06/21 09:55:53;;;;;;;8.25;1.80;;;;;;;;;;5014447;28;20124;-74
2022/06/21 09:58:22;;;;;;;5.60;2.00;;;;;;;;;;5027119;28;20049;-73
2022/06/21 10:00:53;;;;;;;4.20;2.05;;;;;;;;;;5036991;28;20102;-73
2022/06/21 10:03:26;;;;;;;6.57;2.08;;;;;;;;;;5040442;28;20067;-74
2022/06/21 10:06:00;;;;;;;6.38;1.98;;;;;;;;;;5037042;28;20036;-74
2022/06/21 10:08:45;;;;;;;9.55;2.00;;;;;;;;;;5039218;28;20033;-73
2022/06/21 10:11:32;;;;;;;6.72;2.17;;;;;;;;;;5038602;28;20043;-74
2022/06/21 10:14:17;;;;;;;6.70;2.03;;;;;;;;;;5036745;28;20029;-76
2022/06/21 10:17:02;;;;;;;6.50;2.20;;;;;;;;;;5036339;28;20152;-75
2022/06/21 10:19:46;;;;;;;5.80;2.20;;;;;;;;;;5035860;28;20036;-75
2022/06/21 10:22:33;;;;;;;6.90;2.20;;;;;;;;;;5039677;28;20039;-75
2022/06/21 10:25:18;;;;;;;7.55;2.70;;;;;;;;;;5036265;28;20029;-74
2022/06/21 10:28:07;;;;;;;7.15;2.00;;;;;;;;;;5027033;28;20095;-74
2022/06/21 10:30:48;;;;;;;6.55;2.38;;;;;;;;;;5038881;28;20119;-75
2022/06/21 10:33:27;;;;;;;6.18;1.80;;;;;;;;;;5040530;28;20120;-76
2022/06/21 10:35:59;;;;;;;11.32;2.67;;;;;;;;;;5033400;28;20040;-74
2022/06/21 10:38:36;;;;;;;6.82;3.13;;;;;;;;;;5027474;28;20030;-75
2022/06/21 10:41:21;;;;;;;9.60;2.53;;;;;;;;;;5033826;28;20033;-75
2022/06/21 10:43:53;;;;;;;4.88;2.05;;;;;;;;;;5040633;28;20037;-75
2022/06/21 10:46:38;;;;;;;6.63;2.28;;;;;;;;;;5035511;28;20040;-76
2022/06/21 10:49:17;;;;;;;5.50;2.20;;;;;;;;;;5027166;28;20026;-75
2022/06/21 10:52:01;;;;;;;6.70;2.03;;;;;;;;;;5035579;28;20029;-75
2022/06/21 10:54:49;;;;;;;5.22;1.80;;;;;;;;;;5033334;28;20029;-76
2022/06/21 10:57:18;;;;;;;7.68;1.75;;;;;;;;;;5035375;28;20043;-77
2022/06/21 11:02:56;;;;;;;7.65;2.10;;;;;;;;;;5031493;28;20529;-75
2022/06/21 11:05:34;;;;;;;7.50;2.10;;;;;;;;;;5029456;28;20025;-75
2022/06/21 11:08:01;;;;;;;12.07;2.33;;;;;;;;;;5030419;28;20036;-72
2022/06/21 11:10:35;;;;;;;12.40;2.40;;;;;;;;;;5037774;28;20091;-76
2022/06/21 11:13:06;;;;;;;6.80;1.83;;;;;;;;;;5033450;28;20037;-75
2022/06/21 11:15:52;;;;;;;6.50;2.10;;;;;;;;;;5031731;28;20155;-77
2022/06/21 11:18:37;;;;;;;7.60;2.10;;;;;;;;;;5029646;28;20029;-78
2022/06/21 11:21:22;;;;;;;9.10;2.38;;;;;;;;;;5028651;28;20039;-76
2022/06/21 11:24:06;;;;;;;12.48;2.10;;;;;;;;;;5026285;28;20065;-78
2022/06/21 11:26:39;;;;;;;8.10;2.35;;;;;;;;;;5028232;28;20521;-77
2022/06/21 11:29:08;;;;;;;3.58;1.80;;;;;;;;;;5020418;28;20036;-77
2022/06/21 11:31:40;;;;;;;7.32;2.13;;;;;;;;;;5027656;28;20034;-78
2022/06/21 11:34:13;;;;;;;6.50;2.05;;;;;;;;;;5049155;28;20030;-79
2022/06/21 11:39:52;;;;;;;6.35;2.10;;;;;;;;;;5037260;28;20074;-78
2022/06/21 11:42:24;;;;;;;11.57;2.10;;;;;;;;;;5020085;28;20061;-78
2022/06/21 11:44:50;;;;;;;5.88;2.15;;;;;;;;;;5029649;28;20052;-77
2022/06/21 11:47:28;;;;;;;4.25;1.70;;;;;;;;;;5021921;28;20494;-77
2022/06/21 11:50:07;;;;;;;5.43;2.30;;;;;;;;;;5026337;28;20045;-77
2022/06/21 11:52:36;;;;;;;7.38;2.28;;;;;;;;;;5025049;28;20045;-76
2022/06/21 11:55:18;;;;;;;14.35;2.50;;;;;;;;;;5027237;28;20049;-75
2022/06/21 11:58:02;;;;;;;9.32;2.28;;;;;;;;;;5028453;28;20029;-75
2022/06/21 12:00:41;;;;;;;7.85;2.20;;;;;;;;;;5027399;28;20550;-75
2022/06/21 12:03:11;;;;;;;8.40;2.13;;;;;;;;;;5026706;28;20037;-76
2022/06/21 12:05:54;;;;;;;8.02;2.20;;;;;;;;;;5025865;28;20049;-76
2022/06/21 12:08:38;;;;;;;8.63;2.33;;;;;;;;;;5022112;28;20025;-75
2022/06/21 12:11:24;;;;;;;7.18;2.05;;;;;;;;;;5018511;28;20037;-76
2022/06/21 12:13:59;;;;;;;7.13;2.10;;;;;;;;;;5016955;28;20121;-74
2022/06/21 12:16:36;;;;;;;7.25;2.33;;;;;;;;;;5019577;28;20021;-76
2022/06/21 12:19:04;;;;;;;4.82;1.67;;;;;;;;;;5032250;28;20029;-76
2022/06/21 12:21:33;;;;;;;6.78;2.10;;;;;;;;;;5036196;28;20044;-76
2022/06/21 12:24:05;;;;;;;6.10;1.70;;;;;;;;;;5033118;28;20017;-76
2022/06/21 12:26:32;;;;;;;5.68;2.03;;;;;;;;;;5042216;28;20056;-75
2022/06/21 12:29:00;;;;;;;8.88;2.22;;;;;;;;;;5027105;28;20517;-75
2022/06/21 12:31:33;;;;;;;5.90;2.30;;;;;;;;;;5019800;28;20029;-74
2022/06/21 12:34:18;;;;;;;10.35;2.70;;;;;;;;;;5028713;28;20034;-75
2022/06/21 12:36:47;;;;;;;6.25;2.38;;;;;;;;;;5020901;28;20030;-76
2022/06/21 12:39:29;;;;;;;8.98;2.47;;;;;;;;;;5022338;28;20025;-73
2022/06/21 12:42:01;;;;;;;7.53;2.35;;;;;;;;;;5016786;28;20550;-75
2022/06/21 12:44:37;;;;;;;10.48;3.00;;;;;;;;;;5022709;28;20113;-74
2022/06/21 12:47:06;;;;;;;6.07;2.35;;;;;;;;;;5024460;28;20037;-76
2022/06/21 12:49:35;;;;;;;10.35;2.65;;;;;;;;;;5018168;28;20033;-76
2022/06/21 12:52:03;;;;;;;5.60;2.42;;;;;;;;;;5018856;28;20545;-77
2022/06/21 12:54:29;;;;;;;4.80;2.10;;;;;;;;;;5017783;28;20033;-73
2022/06/21 12:57:04;;;;;;;5.45;2.53;;;;;;;;;;5016618;28;20037;-76
2022/06/21 12:59:30;;;;;;;7.30;2.10;;;;;;;;;;5014044;28;20491;-75
2022/06/21 13:02:15;;;;;;;5.47;2.30;;;;;;;;;;5030484;28;20033;-73
2022/06/21 13:04:47;;;;;;;7.63;2.40;;;;;;;;;;5023985;28;20039;-75
2022/06/21 13:07:13;;;;;;;10.20;2.65;;;;;;;;;;5030271;28;20152;-76
2022/06/21 13:09:58;;;;;;;7.35;2.33;;;;;;;;;;5029437;28;20127;-73
2022/06/21 13:12:24;;;;;;;9.00;2.50;;;;;;;;;;5025855;28;20029;-75
2022/06/21 13:14:50;;;;;;;8.38;2.72;;;;;;;;;;5020412;28;20542;-74
2022/06/21 13:17:16;;;;;;;6.60;2.38;;;;;;;;;;5018412;28;20025;-73
2022/06/21 13:20:01;;;;;;;9.00;3.30;;;;;;;;;;5028166;28;20483;-74
2022/06/21 13:22:30;;;;;;;9.70;2.55;;;;;;;;;;5024242;28;20040;-75
2022/06/21 13:25:14;;;;;;;6.55;2.47;;;;;;;;;;5027689;28;20034;-75
2022/06/21 13:27:40;;;;;;;7.00;2.60;;;;;;;;;;5026305;28;20033;-76
2022/06/21 13:30:12;;;;;;;9.98;2.72;;;;;;;;;;5023306;28;20111;-75
2022/06/21 13:33:01;;;;;;;7.53;2.45;;;;;;;;;;5031851;28;20026;-74
2022/06/21 13:35:33;;;;;;;5.43;2.70;;;;;;;;;;5022771;28;20029;-75
2022/06/21 13:38:02;;;;;;;8.65;2.63;;;;;;;;;;5024427;28;20040;-76
2022/06/21 13:40:28;;;;;;;5.50;2.33;;;;;;;;;;5028906;28;20483;-77
2022/06/21 13:43:11;;;;;;;8.85;2.53;;;;;;;;;;5023685;28;20521;-75
2022/06/21 13:45:40;;;;;;;45.58;14.90;;;;;;;;;;5022777;28;20045;-75
2022/06/21 13:48:25;;;;;;;8.75;2.70;;;;;;;;;;5027029;28;20060;-76
2022/06/21 13:51:10;;;;;;;7.53;2.42;;;;;;;;;;5018367;28;20036;-74
2022/06/21 13:53:49;;;;;;;11.52;3.75;;;;;;;;;;5023334;28;20068;-76
2022/06/21 13:56:21;;;;;;;5.05;1.88;;;;;;;;;;5028615;28;20057;-75
2022/06/21 13:58:49;;;;;;;6.75;1.65;;;;;;;;;;4984066;28;1096619;-75
2022/06/21 14:01:22;;;;;;;12.73;1.92;;;;;;;;;;5036546;28;20034;-79
2022/06/21 14:03:55;;;;;;;5.63;1.77;;;;;;;;;;5032705;28;20029;-77
2022/06/21 14:06:33;;;;;;;6.70;1.63;;;;;;;;;;5037038;28;20026;-76
2022/06/21 14:09:05;;;;;;;6.75;1.55;;;;;;;;;;5031592;28;20044;-76
2022/06/21 14:11:34;;;;;;;4.75;1.55;;;;;;;;;;5030857;28;20025;-77
2022/06/21 14:14:27;;;;;;;4.03;1.55;;;;;;;;;;5029363;28;20242;-76
2022/06/21 14:16:56;;;;;;;6.38;1.40;;;;;;;;;;5009411;28;20091;-74
2022/06/21 14:19:37;;;;;;;4.70;1.63;;;;;;;;;;5035642;28;20025;-75
2022/06/21 14:22:06;;;;;;;7.70;1.80;;;;;;;;;;5031749;28;20047;-76
2022/06/21 14:24:45;;;;;;;7.85;1.40;;;;;;;;;;5039293;28;20127;-77
2022/06/21 14:27:21;;;;;;;7.32;2.15;;;;;;;;;;5034893;28;20108;-75
2022/06/21 14:29:53;;;;;;;13.23;1.65;;;;;;;;;;5034099;28;20033;-75
2022/06/21 14:32:22;;;;;;;10.35;2.15;;;;;;;;;;5039611;28;20150;-75
2022/06/21 14:34:57;;;;;;;6.03;1.20;;;;;;;;;;5028237;28;20066;-73
2022/06/21 14:37:36;;;;;;;10.18;2.35;;;;;;;;;;5032204;28;20064;-74
2022/06/21 14:40:08;;;;;;;4.38;1.50;;;;;;;;;;5043524;28;20425;-73
2022/06/21 14:42:39;;;;;;;12.23;1.45;;;;;;;;;;5034131;28;20025;-73
2022/06/21 14:45:15;;;;;;;8.57;1.70;;;;;;;;;;5027291;28;20119;-74
2022/06/21 14:47:47;;;;;;;3.95;1.20;;;;;;;;;;5036370;28;20025;-74
2022/06/21 14:50:20;;;;;;;3.47;1.35;;;;;;;;;;5039524;28;20033;-74
2022/06/21 14:52:49;;;;;;;8.90;1.45;;;;;;;;;;5045529;28;20038;-75
2022/06/21 14:55:24;;;;;;;12.98;1.70;;;;;;;;;;5028583;28;20532;-74
2022/06/21 14:58:01;;;;;;;6.30;1.83;;;;;;;;;;5035182;28;20041;-75
2022/06/21 15:00:34;;;;;;;8.43;1.67;;;;;;;;;;5026240;28;20053;-76
2022/06/21 15:03:03;;;;;;;5.28;1.85;;;;;;;;;;5033065;28;20026;-76
2022/06/21 15:05:51;;;;;;;7.47;1.55;;;;;;;;;;5033630;28;20371;-75
2022/06/21 15:08:23;;;;;;;4.47;1.27;;;;;;;;;;5034494;28;20211;-76
2022/06/21 15:11:00;;;;;;;5.03;1.30;;;;;;;;;;5026902;28;20029;-74
2022/06/21 15:13:37;;;;;;;11.65;1.77;;;;;;;;;;5032917;28;20491;-76
2022/06/21 15:16:20;;;;;;;5.07;1.38;;;;;;;;;;5039022;28;20082;-76
2022/06/21 15:18:51;;;;;;;3.35;1.40;;;;;;;;;;5031614;28;20080;-76
2022/06/21 15:21:37;;;;;;;10.13;2.28;;;;;;;;;;5033508;28;20029;-76